Time;durP1;ratioP1;P1;durP2;ratioP2;P2;SDS_P1;SDS_P2;PMS_P1;PMS_P2;Temp;Humidity;BMP_temperature;BMP_pressure;BME280_temperature;BME280_humidity;BME280_pressure;Samples;Min_cycle;Max_cycle;Signal;HPM_P1;HPM_P2
2023/01/20 00:01:23;;;;;;;54.47;45.50;;;;;;;0.44;100.00;100937.44;5110961;28;20112;-62
2023/01/20 00:03:51;;;;;;;56.43;46.13;;;;;;;0.36;100.00;100948.94;5102886;28;20331;-61
2023/01/20 00:06:17;;;;;;;60.97;47.50;;;;;;;0.38;100.00;100954.97;5111381;28;20525;-62
2023/01/20 00:08:42;;;;;;;62.33;50.20;;;;;;;0.37;100.00;100956.75;5111541;28;20123;-62
2023/01/20 00:11:12;;;;;;;60.73;48.30;;;;;;;0.39;100.00;100965.44;5085971;28;20403;-62
2023/01/20 00:13:38;;;;;;;59.80;47.22;;;;;;;0.33;100.00;100959.47;5097597;28;20039;-62
2023/01/20 00:16:09;;;;;;;62.13;48.40;;;;;;;0.31;100.00;100974.31;5093540;28;20102;-62
2023/01/20 00:18:37;;;;;;;60.10;48.83;;;;;;;0.35;100.00;100963.75;5110464;28;20028;-62
2023/01/20 00:21:05;;;;;;;62.07;48.43;;;;;;;0.33;100.00;100968.16;5093433;28;20028;-62
2023/01/20 00:23:30;;;;;;;59.60;46.43;;;;;;;0.36;100.00;100973.34;5103086;28;20371;-63
2023/01/20 00:25:56;;;;;;;59.20;46.63;;;;;;;0.34;100.00;100969.88;5095167;28;20024;-62
2023/01/20 00:28:21;;;;;;;57.43;46.20;;;;;;;0.31;100.00;100964.72;5094527;28;20537;-62
2023/01/20 00:30:47;;;;;;;59.33;45.03;;;;;;;0.35;100.00;100968.97;5094794;28;20020;-62
2023/01/20 00:33:12;;;;;;;59.37;42.30;;;;;;;0.24;100.00;100973.56;5094655;28;20056;-62
2023/01/20 00:35:37;;;;;;;58.73;44.90;;;;;;;0.25;100.00;100982.28;5095556;28;20106;-61
2023/01/20 00:38:05;;;;;;;60.43;45.30;;;;;;;0.22;100.00;100981.44;5094632;28;20028;-62
2023/01/20 00:40:31;;;;;;;60.77;45.80;;;;;;;0.25;100.00;100977.91;5094289;28;20399;-62
2023/01/20 00:42:56;;;;;;;62.00;46.30;;;;;;;0.25;100.00;100984.91;5099747;28;20023;-61
2023/01/20 00:45:22;;;;;;;59.37;45.00;;;;;;;0.10;100.00;100965.13;5114807;28;20062;-61
2023/01/20 00:47:47;;;;;;;64.57;46.60;;;;;;;0.30;100.00;100989.16;5115129;28;20019;-62
2023/01/20 00:50:12;;;;;;;63.43;47.67;;;;;;;0.26;100.00;100989.22;5114832;28;20064;-62
2023/01/20 00:52:38;;;;;;;67.33;46.67;;;;;;;0.28;100.00;100985.69;5113532;28;20031;-62
2023/01/20 00:55:03;;;;;;;65.10;48.77;;;;;;;0.29;100.00;100987.41;5113062;28;20504;-62
2023/01/20 00:57:29;;;;;;;63.10;46.40;;;;;;;0.27;100.00;100986.59;5114652;28;20071;-62
2023/01/20 00:59:54;;;;;;;68.30;48.70;;;;;;;0.31;100.00;100993.50;5093029;28;20520;-62
2023/01/20 01:02:20;;;;;;;66.93;49.00;;;;;;;0.24;100.00;100981.44;5091536;28;20101;-62
2023/01/20 01:04:49;;;;;;;61.90;45.37;;;;;;;0.35;100.00;100997.75;5073918;28;20023;-62
2023/01/20 01:07:15;;;;;;;63.15;46.92;;;;;;;0.33;100.00;100988.25;5074115;28;20040;-62
2023/01/20 01:09:40;;;;;;;62.90;47.23;;;;;;;0.31;100.00;101001.34;5073974;28;20029;-62
2023/01/20 01:12:08;;;;;;;62.47;46.67;;;;;;;0.27;100.00;101001.44;5073602;28;20039;-62
2023/01/20 01:14:33;;;;;;;61.10;45.83;;;;;;;0.31;100.00;101005.72;5074780;28;20082;-61
2023/01/20 01:17:01;;;;;;;64.20;46.67;;;;;;;0.29;100.00;101008.34;5073925;28;20161;-62
2023/01/20 01:19:26;;;;;;;60.33;46.07;;;;;;;0.28;100.00;101018.84;5072425;28;20021;-62
2023/01/20 01:21:52;;;;;;;63.20;45.83;;;;;;;0.22;100.00;101018.06;5074454;28;20039;-62
2023/01/20 01:24:19;;;;;;;61.70;44.30;;;;;;;0.26;100.00;101031.06;5093392;28;20124;-62
2023/01/20 01:26:45;;;;;;;62.87;45.13;;;;;;;0.32;100.00;101010.91;5092557;28;20031;-62
2023/01/20 01:29:10;;;;;;;64.03;44.07;;;;;;;0.29;100.00;101017.94;5093597;28;20397;-62
2023/01/20 01:31:37;;;;;;;58.47;43.43;;;;;;;0.33;100.00;101019.63;5093776;28;20078;-62
2023/01/20 01:34:03;;;;;;;59.60;43.87;;;;;;;0.23;100.00;101030.22;5090411;28;20039;-62
2023/01/20 01:36:28;;;;;;;62.50;43.67;;;;;;;0.22;100.00;101031.13;5108726;28;20028;-62
2023/01/20 01:38:54;;;;;;;62.20;43.53;;;;;;;0.16;100.00;101031.25;5109027;28;20048;-62
2023/01/20 01:41:19;;;;;;;61.63;43.53;;;;;;;0.20;100.00;101030.28;5109246;28;20034;-62
2023/01/20 01:44:05;;;;;;;61.53;44.07;;;;;;;0.23;100.00;101032.84;5108844;28;20043;-62
2023/01/20 01:46:31;;;;;;;65.00;44.47;;;;;;;0.20;100.00;101035.50;5092904;28;20036;-62
2023/01/20 01:49:03;;;;;;;59.57;42.80;;;;;;;0.21;100.00;101026.81;5091568;28;20036;-62
2023/01/20 01:51:34;;;;;;;60.90;41.77;;;;;;;0.26;100.00;101034.53;5093065;28;20032;-62
2023/01/20 01:54:16;;;;;;;66.20;43.40;;;;;;;0.29;100.00;101041.47;5088964;28;20028;-63
2023/01/20 01:56:43;;;;;;;71.23;45.10;;;;;;;0.29;100.00;101031.03;5091913;28;20036;-62
2023/01/20 01:59:11;;;;;;;66.37;43.97;;;;;;;0.20;100.00;101030.28;5096811;28;20055;-61
2023/01/20 02:01:39;;;;;;;68.23;42.57;;;;;;;0.28;100.00;101037.16;5083466;28;20110;-61
2023/01/20 02:04:13;;;;;;;66.67;44.83;;;;;;;0.25;100.00;101031.97;5113336;28;20025;-61
2023/01/20 02:06:42;;;;;;;66.67;43.77;;;;;;;0.24;100.00;101028.50;5113545;28;20081;-61
2023/01/20 02:09:08;;;;;;;68.60;44.83;;;;;;;0.30;100.00;101028.38;5112711;28;20486;-61
2023/01/20 02:11:50;;;;;;;69.17;42.93;;;;;;;0.30;100.00;101032.75;5095189;28;20316;-62
2023/01/20 02:14:19;;;;;;;63.47;43.47;;;;;;;0.23;100.00;101039.84;5092822;28;20399;-61
2023/01/20 02:17:20;;;;;;;67.50;43.93;;;;;;;0.28;100.00;101040.63;5093193;28;20020;-61
2023/01/20 02:20:22;;;;;;;66.33;43.07;;;;;;;0.31;100.00;101037.09;5092592;28;20024;-61
2023/01/20 02:23:06;;;;;;;65.33;42.20;;;;;;;0.29;100.00;101038.88;5108151;28;20093;-62
2023/01/20 02:25:39;;;;;;;68.40;44.53;;;;;;;0.23;100.00;101042.44;5110565;28;20050;-61
2023/01/20 02:28:37;;;;;;;63.13;41.83;;;;;;;0.25;100.00;101045.06;5113087;28;20030;-61
2023/01/20 02:31:05;;;;;;;65.70;42.53;;;;;;;0.28;100.00;101045.00;5112842;28;20035;-61
2023/01/20 02:33:34;;;;;;;64.80;42.40;;;;;;;0.20;100.00;101052.97;5109955;28;20106;-61
2023/01/20 02:36:14;;;;;;;62.93;42.60;;;;;;;0.19;100.00;101051.25;5113084;28;20401;-61
2023/01/20 02:38:45;;;;;;;64.13;40.88;;;;;;;0.24;100.00;101059.88;5110486;28;20110;-61
2023/01/20 02:41:43;;;;;;;61.90;40.57;;;;;;;0.20;100.00;101052.97;5112378;28;20716;-61
2023/01/20 02:44:17;;;;;;;63.40;40.47;;;;;;;0.23;100.00;101056.38;5056461;28;20482;-61
2023/01/20 02:47:08;;;;;;;64.70;41.33;;;;;;;0.21;100.00;101052.09;5094362;28;20031;-61
2023/01/20 02:49:52;;;;;;;58.93;38.97;;;;;;;0.20;100.00;101051.22;5112372;28;20032;-61
2023/01/20 02:52:27;;;;;;;64.93;42.67;;;;;;;0.20;100.00;101047.72;5080772;28;20028;-61
2023/01/20 02:54:56;;;;;;;63.53;41.33;;;;;;;0.14;100.00;101045.22;5090282;28;20052;-62
2023/01/20 02:57:33;;;;;;;61.97;40.83;;;;;;;0.20;100.00;101052.97;5092109;28;20027;-61
2023/01/20 03:00:06;;;;;;;60.07;40.97;;;;;;;0.14;100.00;101048.69;5101422;28;20074;-62
2023/01/20 03:02:34;;;;;;;66.23;41.77;;;;;;;0.16;100.00;101051.31;5101864;28;20024;-62
2023/01/20 03:05:08;;;;;;;66.93;42.77;;;;;;;0.17;100.00;101053.88;5110465;28;20024;-62
2023/01/20 03:07:37;;;;;;;61.77;38.17;;;;;;;0.14;100.00;101061.78;5111104;28;20019;-62
2023/01/20 03:10:10;;;;;;;64.33;42.87;;;;;;;0.09;100.00;101057.50;5111830;28;20028;-62
2023/01/20 03:12:47;;;;;;;67.00;43.80;;;;;;;0.08;100.00;101055.78;5110121;28;20483;-62
2023/01/20 03:15:14;;;;;;;68.90;42.00;;;;;;;0.14;100.00;101063.53;5102394;28;20027;-62
2023/01/20 03:17:40;;;;;;;62.73;41.80;;;;;;;0.18;100.00;101057.38;5108168;28;20027;-62
2023/01/20 03:20:06;;;;;;;62.77;41.83;;;;;;;0.09;100.00;101058.41;5109276;28;20023;-62
2023/01/20 03:22:32;;;;;;;65.63;40.20;;;;;;;0.10;100.00;101064.47;5111634;28;20355;-62
2023/01/20 03:24:58;;;;;;;59.63;38.83;;;;;;;0.14;100.00;101071.38;5110885;28;20089;-62
2023/01/20 03:27:25;;;;;;;65.83;40.10;;;;;;;0.15;100.00;101060.91;5112092;28;20431;-62
2023/01/20 03:29:52;;;;;;;63.67;42.90;;;;;;;0.14;100.00;101047.84;5111921;28;20066;-62
2023/01/20 03:32:25;;;;;;;65.70;41.93;;;;;;;0.23;100.00;101064.22;5093788;28;20123;-62
2023/01/20 03:34:52;;;;;;;69.67;43.80;;;;;;;0.13;100.00;101070.53;5111853;28;20382;-62
2023/01/20 03:37:17;;;;;;;63.37;42.67;;;;;;;0.17;100.00;101076.56;5111734;28;20027;-60
2023/01/20 03:39:43;;;;;;;60.63;39.63;;;;;;;0.17;100.00;101081.78;5111559;28;20016;-62
2023/01/20 03:42:16;;;;;;;62.57;41.63;;;;;;;0.19;100.00;101080.03;5103249;28;20023;-62
2023/01/20 03:45:08;;;;;;;63.20;40.90;;;;;;;0.27;100.00;101078.16;5112320;28;20042;-62
2023/01/20 03:47:55;;;;;;;69.87;43.93;;;;;;;0.20;100.00;101077.34;5111969;28;20032;-62
2023/01/20 03:50:20;;;;;;;64.40;43.63;;;;;;;0.21;100.00;101084.34;5111699;28;20024;-62
2023/01/20 03:52:48;;;;;;;68.80;46.40;;;;;;;0.26;100.00;101088.63;5108655;28;20633;-62
2023/01/20 03:55:37;;;;;;;72.90;47.50;;;;;;;0.09;100.00;101087.16;5078724;28;20024;-62
2023/01/20 03:58:11;;;;;;;69.13;47.57;;;;;;;0.09;100.00;101081.03;5111918;28;20023;-62
2023/01/20 04:00:41;;;;;;;73.60;47.63;;;;;;;0.13;100.00;101082.75;5106293;28;20043;-62
2023/01/20 04:03:18;;;;;;;76.85;47.05;;;;;;;0.12;100.00;101081.88;5113453;28;20028;-62
2023/01/20 04:05:46;;;;;;;74.13;49.00;;;;;;;0.14;100.00;101098.38;5114656;28;20024;-62
2023/01/20 04:08:15;;;;;;;76.95;49.25;;;;;;;0.15;100.00;101089.66;5095391;28;20039;-62
2023/01/20 04:10:44;;;;;;;73.63;47.57;;;;;;;0.16;100.00;101090.53;5109020;28;20031;-62
2023/01/20 04:13:10;;;;;;;72.47;48.30;;;;;;;0.10;100.00;101099.34;5096874;28;20032;-62
2023/01/20 04:15:40;;;;;;;73.23;47.97;;;;;;;0.10;100.00;101088.88;5114506;28;20534;-62
2023/01/20 04:18:19;;;;;;;74.43;47.43;;;;;;;0.13;100.00;101087.97;5095118;28;20024;-62
2023/01/20 04:20:48;;;;;;;68.77;46.60;;;;;;;0.02;100.00;101076.81;5098830;28;20081;-62
2023/01/20 04:23:23;;;;;;;66.83;45.67;;;;;;;0.06;100.00;101097.66;5092763;28;20019;-62
2023/01/20 04:25:50;;;;;;;71.53;46.17;;;;;;;0.03;100.00;101094.22;5110530;28;20471;-62
2023/01/20 04:28:16;;;;;;;74.07;46.40;;;;;;;0.04;100.00;101096.81;5079582;28;20394;-62
2023/01/20 04:30:41;;;;;;;67.13;44.30;;;;;;;0.06;100.00;101088.94;5114654;28;20030;-62
2023/01/20 04:33:06;;;;;;;73.53;45.67;;;;;;;0.09;100.00;101086.28;5096326;28;20020;-62
2023/01/20 04:35:32;;;;;;;68.50;46.33;;;;;;;0.03;100.00;101087.25;5113592;28;20079;-62
2023/01/20 04:37:57;;;;;;;66.80;45.97;;;;;;;0.03;100.00;101081.13;5111828;28;20020;-62
2023/01/20 04:40:23;;;;;;;69.40;45.40;;;;;;;-0.04;100.00;101090.84;5098694;28;20024;-62
2023/01/20 04:42:48;;;;;;;68.17;45.73;;;;;;;-0.09;100.00;101090.94;5113777;28;20031;-62
2023/01/20 04:45:17;;;;;;;69.77;44.63;;;;;;;-0.08;100.00;101097.00;5114362;28;20043;-62
2023/01/20 04:47:43;;;;;;;70.90;46.17;;;;;;;-0.12;100.00;101090.97;5112677;28;20023;-62
2023/01/20 04:50:09;;;;;;;70.60;45.57;;;;;;;-0.01;100.00;101101.25;5095843;28;20680;-62
2023/01/20 04:52:35;;;;;;;66.30;45.50;;;;;;;0.02;100.00;101105.56;5113943;28;20035;-62
2023/01/20 04:55:01;;;;;;;67.93;46.57;;;;;;;0.01;100.00;101102.09;5113514;28;20028;-62
2023/01/20 04:57:27;;;;;;;73.17;46.23;;;;;;;0.06;100.00;101110.75;5112834;28;20023;-62
2023/01/20 04:59:52;;;;;;;71.73;46.40;;;;;;;0.08;100.00;101103.72;5113988;28;20122;-62
2023/01/20 05:02:17;;;;;;;75.47;47.03;;;;;;;0.08;100.00;101101.09;5113589;28;20031;-62
2023/01/20 05:04:44;;;;;;;70.10;45.93;;;;;;;0.08;100.00;101105.47;5113083;28;20032;-62
2023/01/20 05:07:11;;;;;;;67.63;46.07;;;;;;;0.05;100.00;101110.75;5088647;28;20383;-62
2023/01/20 05:09:37;;;;;;;65.00;44.20;;;;;;;-0.02;100.00;101096.91;5092979;28;20024;-62
2023/01/20 05:12:05;;;;;;;68.10;46.47;;;;;;;0.11;100.00;101106.28;5093338;28;20024;-62
2023/01/20 05:14:31;;;;;;;65.00;45.47;;;;;;;0.10;100.00;101109.78;5114260;28;20027;-62
2023/01/20 05:16:56;;;;;;;66.60;43.57;;;;;;;0.06;100.00;101113.34;5114571;28;20091;-62
2023/01/20 05:19:22;;;;;;;75.33;47.20;;;;;;;0.00;100.00;101108.22;5113834;28;20100;-62
2023/01/20 05:21:49;;;;;;;72.77;47.37;;;;;;;0.05;100.00;101114.22;5114264;28;20072;-62
2023/01/20 05:24:15;;;;;;;70.23;46.50;;;;;;;0.01;100.00;101109.94;5101025;28;20024;-62
2023/01/20 05:26:40;;;;;;;66.97;44.53;;;;;;;0.00;100.00;101118.69;5095980;28;20027;-62
2023/01/20 05:29:06;;;;;;;67.00;43.27;;;;;;;0.04;100.00;101124.72;5114044;28;20024;-62
2023/01/20 05:31:31;;;;;;;64.80;43.60;;;;;;;0.05;100.00;101123.81;5114120;28;20102;-62
2023/01/20 05:33:57;;;;;;;71.17;44.67;;;;;;;0.05;100.00;101124.69;5095492;28;20099;-62
2023/01/20 05:36:22;;;;;;;66.33;42.83;;;;;;;-0.02;100.00;101112.59;5114120;28;20462;-62
2023/01/20 05:38:47;;;;;;;69.80;44.27;;;;;;;0.05;100.00;101118.59;5113374;28;20130;-62
2023/01/20 05:41:13;;;;;;;63.97;44.17;;;;;;;0.03;100.00;101112.50;5101395;28;20020;-62
2023/01/20 05:43:39;;;;;;;65.97;43.97;;;;;;;0.01;100.00;101116.94;5093590;28;20478;-62
2023/01/20 05:46:04;;;;;;;71.93;45.00;;;;;;;0.00;100.00;101123.91;5095007;28;20032;-62
2023/01/20 05:48:30;;;;;;;69.03;43.73;;;;;;;-0.04;100.00;101116.97;5093144;28;20062;-62
2023/01/20 05:50:56;;;;;;;64.87;43.93;;;;;;;-0.02;100.00;101118.69;5093704;28;20073;-62
2023/01/20 05:53:21;;;;;;;64.07;43.13;;;;;;;-0.03;100.00;101126.53;5074904;28;20093;-62
2023/01/20 05:55:47;;;;;;;64.27;44.07;;;;;;;-0.01;100.00;101130.00;5092940;28;20023;-62
2023/01/20 05:58:13;;;;;;;63.37;42.80;;;;;;;-0.07;100.00;101136.19;5087974;28;20114;-62
2023/01/20 06:00:38;;;;;;;60.73;40.80;;;;;;;-0.01;100.00;101136.09;5113520;28;20089;-62
2023/01/20 06:03:04;;;;;;;67.37;42.80;;;;;;;-0.03;100.00;101137.88;5093720;28;20039;-62
2023/01/20 06:05:30;;;;;;;64.10;41.30;;;;;;;-0.01;100.00;101135.22;5093007;28;20031;-62
2023/01/20 06:07:56;;;;;;;69.10;44.00;;;;;;;0.01;100.00;101130.00;5097615;28;20027;-62
2023/01/20 06:10:26;;;;;;;63.80;41.67;;;;;;;-0.06;100.00;101137.03;5110775;28;20523;-62
2023/01/20 06:12:53;;;;;;;62.10;42.70;;;;;;;0.03;100.00;101138.66;5099474;28;20488;-62
2023/01/20 06:15:19;;;;;;;60.23;42.30;;;;;;;0.00;100.00;101150.06;5099586;28;20066;-62
2023/01/20 06:17:45;;;;;;;63.43;42.17;;;;;;;-0.02;100.00;101141.38;5102590;28;20055;-62
2023/01/20 06:20:11;;;;;;;63.00;42.93;;;;;;;-0.02;100.00;101141.38;5105081;28;20059;-61
2023/01/20 06:22:36;;;;;;;66.70;43.13;;;;;;;0.05;100.00;101150.81;5104006;28;20016;-62
2023/01/20 06:25:02;;;;;;;62.67;41.23;;;;;;;0.06;100.00;101155.19;5102804;28;20518;-62
2023/01/20 06:27:28;;;;;;;65.07;41.27;;;;;;;-0.02;100.00;101144.84;5109114;28;20058;-62
2023/01/20 06:29:55;;;;;;;67.57;41.90;;;;;;;0.05;100.00;101152.59;5099210;28;20055;-62
2023/01/20 06:32:21;;;;;;;66.57;43.73;;;;;;;0.03;100.00;101159.56;5111292;28;20033;-62
2023/01/20 06:34:46;;;;;;;69.07;43.73;;;;;;;0.01;100.00;101164.84;5108747;28;20031;-61
2023/01/20 06:37:12;;;;;;;65.20;42.47;;;;;;;0.01;100.00;101156.16;5097160;28;20436;-61
2023/01/20 06:39:39;;;;;;;69.07;43.80;;;;;;;-0.04;100.00;101149.22;5101411;28;20028;-62
2023/01/20 06:42:06;;;;;;;66.10;44.07;;;;;;;0.02;100.00;101152.63;5112791;28;20062;-62
2023/01/20 06:44:32;;;;;;;69.60;43.30;;;;;;;0.02;100.00;101150.03;5095585;28;20035;-62
2023/01/20 06:46:58;;;;;;;67.70;42.40;;;;;;;-0.03;100.00;101126.53;5074483;28;20027;-62
2023/01/20 06:49:24;;;;;;;65.53;43.33;;;;;;;0.02;100.00;101150.03;5106319;28;20393;-62
2023/01/20 06:51:49;;;;;;;63.73;41.83;;;;;;;0.03;100.00;101150.00;5112556;28;20068;-62
2023/01/20 06:54:15;;;;;;;61.80;39.97;;;;;;;-0.02;100.00;101144.84;5112167;28;20088;-62
2023/01/20 06:56:43;;;;;;;63.43;41.47;;;;;;;-0.01;100.00;101140.47;5096070;28;20028;-62
2023/01/20 06:59:10;;;;;;;59.53;40.87;;;;;;;-0.03;100.00;101147.44;5073568;28;20044;-61
2023/01/20 07:01:35;;;;;;;63.73;41.73;;;;;;;-0.10;100.00;101141.47;5073974;28;20035;-62
2023/01/20 07:04:00;;;;;;;65.30;43.00;;;;;;;-0.04;100.00;101137.91;5073806;28;20020;-62
2023/01/20 07:06:32;;;;;;;67.13;42.53;;;;;;;0.00;100.00;101147.44;5092677;28;20363;-61
2023/01/20 07:08:59;;;;;;;62.13;41.30;;;;;;;-0.10;100.00;101133.63;5091588;28;20028;-62
2023/01/20 07:11:24;;;;;;;67.77;42.47;;;;;;;-0.02;100.00;101147.44;5090888;28;20024;-62
2023/01/20 07:13:50;;;;;;;61.90;41.03;;;;;;;-0.03;100.00;101150.97;5091483;28;20099;-62
2023/01/20 07:16:16;;;;;;;61.70;41.07;;;;;;;-0.03;100.00;101160.53;5092082;28;20054;-62
2023/01/20 07:18:42;;;;;;;60.73;41.50;;;;;;;-0.07;100.00;101154.47;5077190;28;20034;-62
2023/01/20 07:21:10;;;;;;;61.00;42.13;;;;;;;-0.08;100.00;101150.16;5107223;28;20027;-62
2023/01/20 07:23:35;;;;;;;60.47;41.73;;;;;;;-0.10;100.00;101154.53;5111611;28;20464;-62
2023/01/20 07:26:13;;;;;;;61.83;43.63;;;;;;;-0.07;100.00;101153.63;5108004;28;20110;-62
2023/01/20 07:28:39;;;;;;;62.07;41.87;;;;;;;-0.09;100.00;101158.00;5102289;28;20023;-62
2023/01/20 07:31:05;;;;;;;60.40;41.43;;;;;;;-0.11;100.00;101163.28;5111232;28;20027;-61
2023/01/20 07:33:31;;;;;;;62.53;40.47;;;;;;;-0.07;100.00;101164.09;5109707;28;20062;-61
2023/01/20 07:35:57;;;;;;;60.20;41.37;;;;;;;-0.08;100.00;101167.59;5101720;28;20020;-62
2023/01/20 07:38:22;;;;;;;58.67;40.63;;;;;;;-0.04;100.00;101169.28;5077852;28;20028;-61
2023/01/20 07:40:47;;;;;;;57.97;40.10;;;;;;;-0.04;100.00;101174.50;5077306;28;20028;-63
2023/01/20 07:43:13;;;;;;;59.50;40.40;;;;;;;-0.10;100.00;101172.81;5095538;28;20103;-61
2023/01/20 07:45:38;;;;;;;58.53;39.97;;;;;;;-0.04;100.00;101183.19;5077665;28;20051;-63
2023/01/20 07:48:06;;;;;;;62.07;42.00;;;;;;;-0.05;100.00;101194.56;5095709;28;20031;-63
2023/01/20 07:50:35;;;;;;;63.20;41.67;;;;;;;-0.01;100.00;101190.13;5079472;28;20031;-63
2023/01/20 07:53:01;;;;;;;60.53;40.53;;;;;;;0.02;100.00;101189.25;5110578;28;20027;-63
2023/01/20 07:55:27;;;;;;;57.83;41.27;;;;;;;-0.07;100.00;101195.44;5114702;28;20099;-62
2023/01/20 07:57:52;;;;;;;60.27;41.00;;;;;;;-0.01;100.00;101196.22;5115785;28;20103;-63
2023/01/20 08:00:19;;;;;;;60.80;41.17;;;;;;;0.03;100.00;101207.53;5097173;28;20520;-63
2023/01/20 08:02:44;;;;;;;60.50;41.10;;;;;;;-0.04;100.00;101198.03;5115780;28;20036;-63
2023/01/20 08:05:11;;;;;;;56.70;40.40;;;;;;;-0.01;100.00;101200.59;5095676;28;20077;-63
2023/01/20 08:07:36;;;;;;;58.77;42.63;;;;;;;-0.02;100.00;101198.88;5095380;28;20479;-63
2023/01/20 08:10:02;;;;;;;58.87;40.67;;;;;;;-0.03;100.00;101203.25;5094726;28;20035;-63
2023/01/20 08:12:28;;;;;;;61.37;40.77;;;;;;;0.02;100.00;101205.78;5095180;28;20020;-63
2023/01/20 08:14:54;;;;;;;64.27;43.30;;;;;;;-0.02;100.00;101204.09;5095078;28;20035;-63
2023/01/20 08:17:20;;;;;;;62.63;41.17;;;;;;;0.00;100.00;101207.56;5105909;28;20027;-63
2023/01/20 08:19:45;;;;;;;59.87;41.27;;;;;;;0.08;100.00;101200.47;5101236;28;20039;-63
2023/01/20 08:22:11;;;;;;;57.67;40.00;;;;;;;-0.01;100.00;101198.84;5096393;28;20094;-63
2023/01/20 08:24:36;;;;;;;59.47;41.27;;;;;;;0.03;100.00;101196.19;5091814;28;20024;-63
2023/01/20 08:27:02;;;;;;;53.43;39.73;;;;;;;0.04;100.00;101201.41;5115380;28;20024;-63
2023/01/20 08:29:27;;;;;;;58.57;39.03;;;;;;;0.06;100.00;101212.72;5097103;28;20340;-62
2023/01/20 08:31:55;;;;;;;55.73;39.53;;;;;;;0.07;100.00;101211.81;5113950;28;20023;-63
2023/01/20 08:34:26;;;;;;;53.50;40.30;;;;;;;0.04;100.00;101214.47;5096647;28;20610;-62
2023/01/20 08:36:52;;;;;;;53.43;38.90;;;;;;;0.06;100.00;101214.44;5114621;28;20161;-62
2023/01/20 08:39:18;;;;;;;53.20;37.63;;;;;;;0.04;100.00;101211.00;5114693;28;20059;-63
2023/01/20 08:41:46;;;;;;;50.30;35.27;;;;;;;-0.03;100.00;101213.72;5094552;28;20027;-63
2023/01/20 08:44:12;;;;;;;50.97;36.40;;;;;;;0.14;100.00;101215.22;5115065;28;20028;-62
2023/01/20 08:46:39;;;;;;;47.47;35.10;;;;;;;0.11;100.00;101213.50;5115041;28;20035;-63
2023/01/20 08:49:09;;;;;;;50.30;36.40;;;;;;;0.03;100.00;101204.91;5113765;28;20035;-62
2023/01/20 08:51:35;;;;;;;50.03;36.63;;;;;;;0.08;100.00;101215.28;5114972;28;20035;-61
2023/01/20 08:54:01;;;;;;;47.60;35.43;;;;;;;0.12;100.00;101222.19;5114231;28;20035;-62
2023/01/20 08:56:27;;;;;;;44.57;35.73;;;;;;;0.14;100.00;101215.22;5114860;28;20094;-61
2023/01/20 08:58:52;;;;;;;48.57;36.27;;;;;;;0.12;100.00;101224.81;5112898;28;20260;-61
2023/01/20 09:01:22;;;;;;;45.23;34.80;;;;;;;0.13;100.00;101219.56;5114568;28;20065;-62
2023/01/20 09:03:48;;;;;;;46.70;36.47;;;;;;;0.12;100.00;101216.97;5096016;28;20030;-63
2023/01/20 09:06:14;;;;;;;45.53;35.63;;;;;;;0.13;100.00;101216.97;5111458;28;20026;-63
2023/01/20 09:08:40;;;;;;;50.37;36.30;;;;;;;0.12;100.00;101227.44;5095850;28;20024;-62
2023/01/20 09:11:12;;;;;;;46.07;35.00;;;;;;;0.13;100.00;101219.56;5114171;28;20024;-62
2023/01/20 09:13:38;;;;;;;48.57;37.07;;;;;;;0.11;100.00;101223.97;5111614;28;20111;-62
2023/01/20 09:16:04;;;;;;;49.67;36.10;;;;;;;0.13;100.00;101224.81;5103558;28;20384;-62
2023/01/20 09:18:31;;;;;;;50.27;37.27;;;;;;;0.14;100.00;101236.13;5093943;28;20027;-61
2023/01/20 09:20:58;;;;;;;48.73;36.03;;;;;;;0.15;100.00;101235.25;5096879;28;20035;-61
2023/01/20 09:23:27;;;;;;;45.90;35.97;;;;;;;-0.02;100.00;101191.91;5095803;28;20027;-62
2023/01/20 09:25:52;;;;;;;48.17;37.10;;;;;;;0.15;100.00;101223.03;5094624;28;20024;-61
2023/01/20 09:28:17;;;;;;;46.20;36.57;;;;;;;0.14;100.00;101221.28;5095362;28;20075;-62
2023/01/20 09:30:43;;;;;;;45.57;36.13;;;;;;;0.15;100.00;101225.66;5091476;28;20110;-62
2023/01/20 09:33:10;;;;;;;44.77;36.13;;;;;;;0.19;100.00;101231.72;5086051;28;20079;-61
2023/01/20 09:35:35;;;;;;;44.37;34.73;;;;;;;0.21;100.00;101224.72;5094070;28;20251;-62
2023/01/20 09:43:57;;;;;;;42.28;33.47;;;;;;;0.26;100.00;101235.94;5112003;28;20058;-62
2023/01/20 09:46:34;;;;;;;42.53;34.13;;;;;;;0.15;100.00;101233.50;5103196;28;20035;-62
2023/01/20 09:54:48;;;;;;;39.67;32.00;;;;;;;0.18;100.00;101250.91;5107598;28;20038;-61
2023/01/20 09:57:15;;;;;;;39.80;32.40;;;;;;;0.19;100.00;101250.88;5107448;28;20057;-61
2023/01/20 10:00:15;;;;;;;37.23;31.83;;;;;;;0.20;100.00;101254.34;5082729;28;20051;-61
2023/01/20 10:02:50;;;;;;;34.92;30.83;;;;;;;0.14;100.00;101250.06;5092760;28;20036;-61
2023/01/20 10:05:22;;;;;;;39.10;30.73;;;;;;;0.11;100.00;101236.16;5106939;28;20024;-61
2023/01/20 10:08:31;;;;;;;33.67;29.00;;;;;;;0.18;100.00;101240.44;5111493;28;20938;-61
2023/01/20 10:11:08;;;;;;;35.37;29.40;;;;;;;0.07;100.00;101221.41;5112784;28;20087;-61
2023/01/20 10:13:46;;;;;;;32.37;27.80;;;;;;;0.15;100.00;101230.88;5110877;28;20023;-61
2023/01/20 10:16:22;;;;;;;31.73;27.57;;;;;;;0.11;100.00;101233.56;5112857;28;20024;-62
2023/01/20 10:18:59;;;;;;;31.20;27.50;;;;;;;0.13;100.00;101234.41;5112499;28;20118;-62
2023/01/20 10:21:34;;;;;;;29.20;26.07;;;;;;;0.10;100.00;101237.06;5094616;28;20024;-63
2023/01/20 10:24:09;;;;;;;28.23;24.90;;;;;;;0.11;100.00;101241.41;5105417;28;20008;-63
2023/01/20 10:27:12;;;;;;;31.53;25.93;;;;;;;0.14;100.00;101236.13;5090067;28;20034;-63
2023/01/20 10:29:46;;;;;;;26.07;23.30;;;;;;;0.12;100.00;101236.16;5069322;28;20040;-63
2023/01/20 10:32:31;;;;;;;26.47;23.67;;;;;;;0.14;100.00;101237.00;5069572;28;20024;-63
2023/01/20 10:35:06;;;;;;;26.63;23.90;;;;;;;0.10;100.00;101222.22;5093263;28;20039;-63
2023/01/20 10:37:34;;;;;;;26.00;23.40;;;;;;;0.13;100.00;101222.19;5112274;28;20019;-63
2023/01/20 10:40:15;;;;;;;25.03;22.53;;;;;;;0.19;100.00;101232.56;5092680;28;20019;-62
2023/01/20 10:42:47;;;;;;;24.67;21.53;;;;;;;0.27;100.00;101226.38;5093847;28;20566;-62
2023/01/20 10:45:27;;;;;;;26.00;23.40;;;;;;;0.20;100.00;101220.34;5112063;28;20043;-63
2023/01/20 10:48:21;;;;;;;24.43;21.93;;;;;;;0.35;100.00;101233.19;5112277;28;20024;-63
2023/01/20 10:50:58;;;;;;;24.20;21.77;;;;;;;0.35;100.00;101235.81;5092159;28;20027;-63
2023/01/20 10:53:52;;;;;;;24.80;22.20;;;;;;;0.41;100.00;101234.84;5093154;28;20041;-64
2023/01/20 10:56:35;;;;;;;24.40;21.87;;;;;;;0.40;100.00;101230.53;5080451;28;20047;-63
2023/01/20 10:59:16;;;;;;;23.57;21.10;;;;;;;0.40;100.00;101222.69;5104514;28;20092;-62
2023/01/20 11:01:46;;;;;;;23.60;21.17;;;;;;;0.42;100.00;101223.53;5110606;28;20063;-63
2023/01/20 11:04:20;;;;;;;23.55;21.25;;;;;;;0.46;100.00;101233.03;5110334;28;20019;-63
2023/01/20 11:06:50;;;;;;;23.77;21.37;;;;;;;0.45;100.00;101232.19;5109018;28;20446;-63
2023/01/20 11:09:32;;;;;;;23.43;21.13;;;;;;;0.56;100.00;101225.91;5107882;28;20129;-63
2023/01/20 11:11:59;;;;;;;24.40;21.90;;;;;;;0.64;100.00;101229.28;5108987;28;20039;-63
2023/01/20 11:14:24;;;;;;;24.00;21.60;;;;;;;0.57;100.00;101222.44;5109535;28;20035;-63
2023/01/20 11:16:57;;;;;;;24.60;22.10;;;;;;;0.61;100.00;101231.94;5074943;28;20449;-63
2023/01/20 11:19:22;;;;;;;22.77;20.40;;;;;;;0.57;100.00;101232.91;5107361;28;20023;-63
2023/01/20 11:21:48;;;;;;;24.07;21.73;;;;;;;0.54;100.00;101227.72;5088943;28;20042;-63
2023/01/20 11:24:41;;;;;;;24.60;22.10;;;;;;;0.62;100.00;101233.69;5109736;28;20336;-63
2023/01/20 11:27:19;;;;;;;23.97;21.60;;;;;;;0.56;100.00;101242.50;5103005;28;20031;-62
2023/01/20 11:29:51;;;;;;;23.57;21.27;;;;;;;0.53;100.00;101239.03;5102667;28;20016;-63